Time;durP1;ratioP1;P1;durP2;ratioP2;P2;SDS_P1;SDS_P2;PMS_P1;PMS_P2;Temp;Humidity;BMP_temperature;BMP_pressure;BME280_temperature;BME280_humidity;BME280_pressure;Samples;Min_cycle;Max_cycle;Signal;HPM_P1;HPM_P2
2022/01/29 00:01:36;;;;;;;63.45;32.23;;;;;;;-0.26;100.00;99426.02;1717020;83;21804;-87
2022/01/29 00:04:42;;;;;;;56.48;29.52;;;;;;;-0.23;100.00;99426.27;1717018;83;21327;-80
2022/01/29 00:07:48;;;;;;;53.58;28.05;;;;;;;-0.23;100.00;99419.05;1712390;83;21287;-88
2022/01/29 00:10:56;;;;;;;55.05;26.87;;;;;;;-0.17;100.00;99414.98;1711575;83;21756;-88
2022/01/29 00:14:01;;;;;;;50.70;26.77;;;;;;;-0.15;100.00;99421.07;1715357;83;21287;-88
2022/01/29 00:17:06;;;;;;;51.50;30.25;;;;;;;-0.16;100.00;99422.06;1716167;83;21916;-88
2022/01/29 00:20:14;;;;;;;52.00;28.60;;;;;;;-0.19;100.00;99420.47;1717201;83;21200;-81
2022/01/29 00:23:19;;;;;;;56.40;30.52;;;;;;;-0.16;100.00;99415.34;1716967;83;21169;-81
2022/01/29 00:26:26;;;;;;;52.73;28.73;;;;;;;-0.15;100.00;99413.00;1713372;83;21200;-81
2022/01/29 00:29:34;;;;;;;53.48;27.27;;;;;;;-0.12;100.00;99410.07;1709479;84;21303;-88
2022/01/29 00:32:37;;;;;;;48.95;27.37;;;;;;;-0.09;100.00;99409.82;1709450;84;21338;-82
2022/01/29 00:35:42;;;;;;;50.92;27.60;;;;;;;-0.07;100.00;99408.69;1709343;84;21292;-81
2022/01/29 00:38:48;;;;;;;50.23;25.00;;;;;;;-0.05;100.00;99406.73;1709467;84;21327;-81
2022/01/29 00:41:53;;;;;;;47.95;26.07;;;;;;;-0.04;100.00;99400.87;1709523;84;21763;-88
2022/01/29 00:45:00;;;;;;;44.33;25.32;;;;;;;-0.04;100.00;99398.18;1708650;84;21346;-88
2022/01/29 00:48:05;;;;;;;45.15;23.42;;;;;;;-0.06;100.00;99394.75;1709627;84;21288;-81
2022/01/29 00:51:10;;;;;;;49.73;26.42;;;;;;;-0.05;100.00;99397.80;1709695;84;21363;-82
2022/01/29 00:54:16;;;;;;;47.60;25.85;;;;;;;-0.04;100.00;99382.89;1688309;84;21165;-86
2022/01/29 00:57:21;;;;;;;49.30;26.93;;;;;;;-0.01;100.00;99383.95;1709575;84;21260;-81
2022/01/29 01:00:27;;;;;;;43.60;25.17;;;;;;;-0.01;100.00;99385.80;1709403;84;21220;-81
2022/01/29 01:03:33;;;;;;;45.55;27.65;;;;;;;0.00;100.00;99376.77;1709379;84;21291;-82
2022/01/29 01:06:38;;;;;;;43.10;24.90;;;;;;;0.01;100.00;99386.53;1709226;84;21272;-81
2022/01/29 01:09:45;;;;;;;41.75;24.45;;;;;;;0.03;100.00;99393.12;1715983;83;21326;-81
2022/01/29 05:28:37;;;;;;;28.00;17.50;;;;;;;0.21;100.00;99462.80;1717076;83;21303;-86
2022/01/29 05:31:42;;;;;;;24.47;16.07;;;;;;;0.31;100.00;99469.59;1717069;83;21750;-79
2022/01/29 05:34:49;;;;;;;30.70;19.32;;;;;;;0.40;100.00;99474.19;1716853;83;21220;-81
2022/01/29 05:37:56;;;;;;;28.23;17.30;;;;;;;0.45;100.00;99476.84;1687337;85;21177;-80
2022/01/29 05:41:02;;;;;;;29.48;18.95;;;;;;;0.51;100.00;99479.48;1744101;82;21330;-80
2022/01/29 05:44:08;;;;;;;28.85;18.85;;;;;;;0.54;100.00;99479.23;1727514;83;21278;-85
2022/01/29 05:47:12;;;;;;;29.30;17.65;;;;;;;0.59;100.00;99481.02;1726292;83;21207;-87
2022/01/29 05:50:17;;;;;;;23.92;16.65;;;;;;;0.66;100.00;99487.59;1727401;83;21276;-87
2022/01/29 05:53:22;;;;;;;27.27;18.00;;;;;;;0.70;100.00;99486.31;1727538;82;21916;-80
2022/01/29 05:56:27;;;;;;;30.92;20.08;;;;;;;0.77;100.00;99490.69;1740823;82;21305;-87
2022/01/29 05:59:35;;;;;;;26.33;17.80;;;;;;;0.85;100.00;99496.27;1753117;82;21305;-87
2022/01/29 06:02:39;;;;;;;30.17;17.75;;;;;;;1.01;100.00;99498.45;1751584;82;21317;-88
2022/01/29 06:05:46;;;;;;;28.38;19.10;;;;;;;1.11;100.00;99493.10;1752638;82;21290;-87
2022/01/29 06:08:51;;;;;;;28.25;18.67;;;;;;;1.23;100.00;99494.22;1752726;82;21333;-80
2022/01/29 06:11:57;;;;;;;27.85;17.98;;;;;;;1.42;100.00;99495.27;1733032;82;21389;-85
2022/01/29 06:15:02;;;;;;;25.52;16.15;;;;;;;1.61;100.00;99498.01;1727527;83;21833;-88
2022/01/29 06:18:12;;;;;;;29.60;16.10;;;;;;;1.82;100.00;99501.08;1727343;83;21940;-88
2022/01/29 06:21:15;;;;;;;23.15;15.03;;;;;;;1.97;100.00;99501.02;1726648;83;21308;-79
2022/01/29 06:24:22;;;;;;;24.12;13.62;;;;;;;2.11;100.00;99493.84;1726734;83;21203;-80
2022/01/29 06:27:28;;;;;;;32.08;15.93;;;;;;;2.24;100.00;99506.56;1748423;81;21285;-88
2022/01/29 06:30:34;;;;;;;22.82;14.87;;;;;;;2.30;100.00;99502.43;1745474;82;21259;-86
2022/01/29 06:33:40;;;;;;;20.97;14.43;;;;;;;2.33;99.70;99499.95;1732250;82;21209;-79
2022/01/29 06:36:47;;;;;;;21.20;14.00;;;;;;;2.38;99.06;99507.97;1716834;83;21307;-80
2022/01/29 06:39:53;;;;;;;20.62;13.35;;;;;;;2.37;98.26;99501.38;1716985;83;21883;-87
2022/01/29 06:43:01;;;;;;;21.00;11.50;;;;;;;2.36;97.99;99499.69;1717572;83;21290;-80
2022/01/29 06:46:06;;;;;;;21.17;12.82;;;;;;;2.35;97.51;99504.70;1717311;83;21359;-86
2022/01/29 06:49:11;;;;;;;18.82;12.58;;;;;;;2.33;97.37;99502.66;1717474;83;21299;-87
2022/01/29 06:52:17;;;;;;;16.95;12.30;;;;;;;2.45;97.48;99502.87;1716686;83;21319;-87
2022/01/29 06:55:22;;;;;;;18.92;11.97;;;;;;;2.57;96.97;99505.74;1716989;83;21334;-80
2022/01/29 06:58:29;;;;;;;19.82;12.47;;;;;;;2.66;96.38;99502.17;1716146;82;21753;-87
2022/01/29 07:01:35;;;;;;;20.75;12.35;;;;;;;2.80;96.00;99507.11;1716468;83;21326;-80
2022/01/29 07:04:40;;;;;;;16.35;11.22;;;;;;;2.93;95.17;99509.50;1717605;83;21267;-80
2022/01/29 07:07:46;;;;;;;18.25;12.47;;;;;;;2.95;94.32;99512.89;1716033;83;21248;-87
2022/01/29 07:14:50;;;;;;;14.98;9.60;;;;;;;3.10;93.58;99528.13;1717808;83;21302;-80
2022/01/29 07:17:56;;;;;;;17.95;11.48;;;;;;;3.16;92.90;99528.91;1716885;83;21892;-83
2022/01/29 07:21:02;;;;;;;18.20;11.45;;;;;;;3.18;92.07;99525.55;1717287;83;21342;-80
2022/01/29 07:24:07;;;;;;;16.80;10.88;;;;;;;3.13;91.32;99531.05;1717673;83;21323;-86
2022/01/29 07:27:13;;;;;;;16.15;11.08;;;;;;;3.01;90.90;99535.30;1738261;82;21278;-87
2022/01/29 07:30:19;;;;;;;17.40;10.68;;;;;;;2.99;91.50;99542.67;1739970;81;21267;-80
2022/01/29 07:33:24;;;;;;;17.50;10.65;;;;;;;3.06;91.38;99542.95;1735903;82;21334;-80
2022/01/29 07:36:28;;;;;;;15.20;10.72;;;;;;;3.10;91.12;99544.84;1717383;83;21362;-81
2022/01/29 07:39:33;;;;;;;15.45;9.60;;;;;;;3.15;90.83;99554.71;1717825;83;21173;-81
2022/01/29 07:42:37;;;;;;;13.30;8.88;;;;;;;3.20;90.51;99553.77;1717813;83;21370;-84
2022/01/29 07:45:43;;;;;;;14.07;8.83;;;;;;;3.24;90.27;99562.78;1717836;83;21225;-84
2022/01/29 07:48:48;;;;;;;15.95;10.40;;;;;;;3.28;89.95;99564.19;1715089;83;21261;-81
2022/01/29 07:51:53;;;;;;;13.50;9.30;;;;;;;3.30;89.41;99564.92;1710883;84;21833;-82
2022/01/29 07:54:58;;;;;;;13.80;8.70;;;;;;;3.37;89.36;99571.92;1711567;84;21295;-82
2022/01/29 07:58:22;;;;;;;12.55;8.50;;;;;;;3.52;89.22;99568.22;1711009;84;21338;-86
2022/01/29 08:01:27;;;;;;;12.47;7.92;;;;;;;3.68;88.69;99577.91;1711073;84;21369;-82
2022/01/29 08:04:48;;;;;;;13.55;8.20;;;;;;;3.79;87.56;99576.85;1710172;84;21296;-83
2022/01/29 08:07:55;;;;;;;11.95;7.75;;;;;;;3.81;86.96;99579.77;1711182;84;21750;-81
2022/01/29 08:11:00;;;;;;;11.90;7.50;;;;;;;3.83;86.37;99575.55;1721998;82;21266;-85
2022/01/29 08:14:06;;;;;;;10.15;7.92;;;;;;;3.81;85.83;99581.13;1742921;82;21904;-83
2022/01/29 08:17:11;;;;;;;12.37;8.43;;;;;;;3.80;85.52;99583.45;1741856;82;21321;-84
2022/01/29 08:20:17;;;;;;;14.15;8.23;;;;;;;3.73;85.12;99586.42;1742861;82;21282;-84
2022/01/29 08:23:23;;;;;;;12.68;8.75;;;;;;;3.63;85.04;99595.59;1742493;82;21278;-84
2022/01/29 08:26:28;;;;;;;14.20;8.03;;;;;;;3.61;85.14;99597.08;1743483;82;21733;-82
2022/01/29 08:29:34;;;;;;;16.93;8.63;;;;;;;3.61;85.21;99590.82;1740323;82;21283;-84
2022/01/29 08:32:42;;;;;;;13.98;7.80;;;;;;;3.60;85.11;99595.38;1734285;82;21282;-84
2022/01/29 08:35:46;;;;;;;18.00;9.95;;;;;;;3.58;84.94;99601.45;1734423;82;21851;-84
2022/01/29 08:38:51;;;;;;;12.03;8.38;;;;;;;3.52;85.05;99601.52;1734423;82;21132;-84
2022/01/29 08:41:57;;;;;;;12.37;7.58;;;;;;;3.49;85.07;99594.23;1735612;82;21294;-82
2022/01/29 08:45:03;;;;;;;12.10;7.95;;;;;;;3.48;85.16;99603.31;1735495;82;21148;-83
2022/01/29 08:48:11;;;;;;;9.68;7.37;;;;;;;3.50;85.25;99602.69;1735584;82;21184;-84
2022/01/29 08:51:16;;;;;;;12.07;8.25;;;;;;;3.57;85.35;99600.58;1734314;82;21823;-83
2022/01/29 08:54:21;;;;;;;11.25;7.37;;;;;;;3.61;84.92;99605.19;1735743;82;21144;-83
2022/01/29 08:57:28;;;;;;;14.63;7.78;;;;;;;3.65;84.97;99609.30;1735230;82;22680;-82
2022/01/29 09:00:34;;;;;;;11.20;7.97;;;;;;;3.65;84.74;99607.95;1735780;82;21215;-85
2022/01/29 09:03:40;;;;;;;10.78;6.08;;;;;;;3.67;84.88;99611.84;1735720;82;21326;-82
2022/01/29 09:06:47;;;;;;;8.43;6.28;;;;;;;3.71;84.96;99611.91;1735236;82;21159;-85
2022/01/29 09:09:53;;;;;;;10.82;6.30;;;;;;;3.73;84.82;99608.06;1734915;82;21794;-83
2022/01/29 09:13:01;;;;;;;8.48;6.33;;;;;;;3.74;84.81;99608.91;1734859;82;21306;-85
2022/01/29 09:16:05;;;;;;;6.85;5.58;;;;;;;3.81;84.84;99614.94;1734577;82;21283;-85
2022/01/29 09:19:11;;;;;;;7.47;4.55;;;;;;;3.82;84.43;99613.94;1735180;82;21294;-85
2022/01/29 09:22:17;;;;;;;5.10;4.25;;;;;;;3.80;84.50;99611.86;1734200;82;21183;-83
2022/01/29 09:25:22;;;;;;;5.53;4.67;;;;;;;3.83;84.23;99614.78;1736042;82;21172;-83
2022/01/29 09:28:28;;;;;;;7.70;4.60;;;;;;;3.82;84.21;99615.28;1740049;82;21831;-85
2022/01/29 09:31:34;;;;;;;7.35;3.95;;;;;;;3.87;84.35;99616.19;1739365;82;21289;-83
2022/01/29 09:34:40;;;;;;;6.55;4.20;;;;;;;3.99;84.11;99612.25;1741317;82;21250;-83
2022/01/29 09:37:46;;;;;;;5.42;3.35;;;;;;;4.11;83.56;99612.91;1740025;82;21292;-82
2022/01/29 09:40:52;;;;;;;3.50;3.08;;;;;;;4.24;83.03;99612.56;1741181;82;21281;-83
2022/01/29 09:44:00;;;;;;;3.62;3.10;;;;;;;4.35;82.63;99613.68;1740016;82;21330;-82
2022/01/29 09:47:06;;;;;;;5.53;3.30;;;;;;;4.36;81.88;99614.87;1740606;82;21349;-85
2022/01/29 09:50:13;;;;;;;3.85;3.05;;;;;;;4.33;81.56;99619.26;1740264;82;21183;-86
2022/01/29 09:53:18;;;;;;;4.87;3.08;;;;;;;4.38;81.37;99625.56;1740988;82;21199;-86
2022/01/29 09:56:25;;;;;;;3.05;2.55;;;;;;;4.40;81.19;99623.55;1729109;82;21331;-86
2022/01/29 09:59:30;;;;;;;4.22;3.00;;;;;;;4.51;81.00;99627.87;1717972;83;21342;-82
2022/01/29 10:02:35;;;;;;;5.00;3.37;;;;;;;4.72;80.72;99627.08;1718446;83;21849;-82
2022/01/29 10:05:46;;;;;;;3.65;2.92;;;;;;;4.92;79.91;99632.33;1718559;83;21222;-87
2022/01/29 10:08:51;;;;;;;3.50;2.92;;;;;;;4.97;78.65;99631.34;1718597;83;21282;-86
2022/01/29 10:11:57;;;;;;;4.28;3.25;;;;;;;4.91;77.96;99640.96;1683957;84;21236;-82
2022/01/29 10:15:13;;;;;;;4.90;3.72;;;;;;;4.79;78.17;99642.20;1697470;84;21217;-81
2022/01/29 10:18:18;;;;;;;5.97;3.40;;;;;;;4.74;78.21;99638.59;1698282;84;21303;-82
2022/01/29 10:21:29;;;;;;;7.25;3.25;;;;;;;4.69;78.14;99636.02;1698078;84;21197;-82
2022/01/29 10:24:33;;;;;;;6.00;3.10;;;;;;;4.59;78.12;99637.45;1698051;84;21279;-82
2022/01/29 10:27:38;;;;;;;4.30;3.10;;;;;;;4.52;78.43;99638.58;1656352;86;21377;-88
2022/01/29 10:31:10;;;;;;;5.30;2.98;;;;;;;4.52;78.68;99640.44;1670217;86;21335;-87
2022/01/29 10:34:35;;;;;;;3.62;2.92;;;;;;;4.49;78.66;99639.38;1670272;86;21229;-81
2022/01/29 10:37:41;;;;;;;3.58;2.87;;;;;;;4.47;78.82;99642.25;1670258;86;21363;-80
2022/01/29 10:40:46;;;;;;;4.15;3.02;;;;;;;4.40;79.14;99645.20;1677290;84;21161;-81
2022/01/29 10:44:16;;;;;;;3.62;2.92;;;;;;;4.33;79.31;99644.13;1698370;84;21944;-90
2022/01/29 10:47:21;;;;;;;3.37;2.67;;;;;;;4.25;79.32;99654.86;1698398;84;21755;-89
2022/01/29 10:50:26;;;;;;;3.27;2.75;;;;;;;4.11;79.85;99658.92;1698181;84;22347;-79
2022/01/29 10:53:33;;;;;;;3.25;2.40;;;;;;;4.07;80.22;99658.37;1697757;84;21304;-82
2022/01/29 10:56:38;;;;;;;3.92;2.65;;;;;;;4.01;80.40;99662.19;1697946;84;21335;-90
2022/01/29 10:59:58;;;;;;;3.98;3.00;;;;;;;3.99;80.42;99666.88;1677485;84;21750;-90
2022/01/29 11:03:04;;;;;;;2.77;2.45;;;;;;;3.97;80.54;99665.69;1698064;84;21161;-80
2022/01/29 11:06:10;;;;;;;3.42;2.67;;;;;;;3.96;80.63;99669.41;1697251;84;21649;-90
2022/01/29 11:09:16;;;;;;;3.37;2.72;;;;;;;3.89;80.74;99669.63;1697427;84;21299;-90
2022/01/29 11:12:33;;;;;;;2.98;2.30;;;;;;;3.79;81.27;99673.73;1689416;84;21373;-82
2022/01/29 11:15:39;;;;;;;3.15;2.55;;;;;;;3.66;81.52;99669.66;1669989;86;21890;-90
2022/01/29 11:18:46;;;;;;;3.10;2.55;;;;;;;3.58;82.23;99674.47;1704156;84;21666;-91
2022/01/29 11:21:52;;;;;;;5.08;3.00;;;;;;;3.59;82.50;99673.47;1674058;84;21197;-78
2022/01/29 11:25:10;;;;;;;3.35;2.62;;;;;;;3.61;82.59;99676.01;1699289;84;21181;-79
2022/01/29 11:28:26;;;;;;;3.90;2.92;;;;;;;3.61;82.52;99677.36;1669886;86;21864;-90
2022/01/29 11:31:33;;;;;;;3.37;2.57;;;;;;;3.57;82.53;99686.26;1656197;86;21200;-77
2022/01/29 11:34:40;;;;;;;3.65;3.10;;;;;;;3.52;82.61;99687.20;1679434;84;21306;-79
2022/01/29 11:38:15;;;;;;;3.40;3.10;;;;;;;3.51;82.75;99691.76;1674790;84;21346;-81
2022/01/29 11:41:19;;;;;;;5.37;4.05;;;;;;;3.49;82.80;99695.63;1684186;84;21188;-77
2022/01/29 11:44:38;;;;;;;5.83;4.08;;;;;;;3.52;82.99;99692.61;1647756;86;21637;-90
2022/01/29 11:47:53;;;;;;;5.10;3.40;;;;;;;3.56;82.85;99698.08;1661058;86;21330;-89
2022/01/29 11:51:02;;;;;;;5.05;4.00;;;;;;;3.53;82.81;99703.30;1661529;86;21314;-88
2022/01/29 11:54:08;;;;;;;3.65;3.17;;;;;;;3.56;83.09;99700.78;1657405;86;21248;-79
2022/01/29 11:57:16;;;;;;;6.20;3.67;;;;;;;3.61;83.24;99706.61;1659162;85;21334;-88
2022/01/29 12:00:41;;;;;;;5.03;3.70;;;;;;;3.65;83.31;99701.27;1651578;87;21893;-88
2022/01/29 12:03:52;;;;;;;4.75;3.85;;;;;;;3.63;83.17;99705.98;1663469;85;21326;-88
2022/01/29 12:07:20;;;;;;;5.22;3.40;;;;;;;3.57;83.37;99714.16;1652607;85;21323;-79
2022/01/29 12:10:24;;;;;;;3.87;2.90;;;;;;;3.54;83.61;99708.20;1680388;85;21181;-79
2022/01/29 12:13:29;;;;;;;4.72;3.08;;;;;;;3.52;83.59;99721.00;1680371;85;21166;-88
2022/01/29 12:16:58;;;;;;;4.33;3.12;;;;;;;3.50;83.76;99716.25;1679576;85;21344;-79
2022/01/29 12:20:07;;;;;;;3.10;2.42;;;;;;;3.48;83.77;99723.64;1680269;85;21664;-88
2022/01/29 12:23:13;;;;;;;3.62;2.60;;;;;;;3.39;83.83;99725.39;1680839;85;21895;-79
2022/01/29 12:26:18;;;;;;;3.40;2.40;;;;;;;3.36;84.00;99733.77;1671742;85;21366;-79
2022/01/29 12:29:17;;;;;;;3.37;2.83;;;;;;;3.32;84.13;99729.66;1662236;86;21721;-88
2022/01/29 12:32:22;;;;;;;4.95;2.62;;;;;;;3.28;84.22;99743.09;1644740;86;21327;-88
2022/01/29 12:35:28;;;;;;;3.77;2.60;;;;;;;3.22;84.32;99743.17;1670551;83;21243;-88
2022/01/29 12:38:43;;;;;;;5.80;2.45;;;;;;;3.10;84.63;99743.45;1673983;85;21332;-89
2022/01/29 12:41:48;;;;;;;3.47;2.45;;;;;;;2.94;85.25;99745.38;1672257;85;21820;-80
2022/01/29 12:45:07;;;;;;;8.93;3.27;;;;;;;2.73;86.20;99749.53;1632347;88;21351;-89
2022/01/29 12:48:18;;;;;;;4.78;3.42;;;;;;;2.60;87.08;99747.63;1613327;87;21241;-88
2022/01/29 12:51:22;;;;;;;4.53;2.60;;;;;;;2.55;87.90;99752.94;1631657;88;21346;-88
2022/01/29 12:54:29;;;;;;;3.50;2.50;;;;;;;2.47;88.61;99752.77;1635488;87;21346;-88
2022/01/29 12:57:52;;;;;;;4.60;2.75;;;;;;;2.39;89.21;99762.53;1672170;85;21857;-86
2022/01/29 13:01:00;;;;;;;4.40;2.58;;;;;;;2.30;89.38;99765.56;1656905;85;21655;-79
2022/01/29 13:04:13;;;;;;;3.17;2.40;;;;;;;2.21;89.83;99765.91;1673706;85;21177;-82
2022/01/29 13:07:18;;;;;;;4.05;2.90;;;;;;;2.12;90.20;99771.23;1672865;85;21364;-87
2022/01/29 13:10:24;;;;;;;3.83;2.50;;;;;;;2.08;90.54;99778.77;1672740;85;21568;-78
2022/01/29 13:13:40;;;;;;;3.45;2.77;;;;;;;2.10;90.59;99785.38;1673352;85;21957;-88
2022/01/29 13:16:46;;;;;;;4.92;2.72;;;;;;;2.09;90.61;99789.91;1673010;85;21664;-81
2022/01/29 13:19:53;;;;;;;4.20;2.85;;;;;;;2.04;90.65;99797.06;1671840;85;21201;-79
2022/01/29 13:22:58;;;;;;;6.25;3.00;;;;;;;2.00;90.69;99796.12;1672853;85;21300;-79
2022/01/29 13:26:04;;;;;;;5.35;2.77;;;;;;;1.99;90.65;99798.46;1656267;85;21326;-79
2022/01/29 13:29:17;;;;;;;2.87;2.42;;;;;;;1.97;90.54;99800.42;1682654;85;21287;-87
2022/01/29 13:32:19;;;;;;;4.12;2.62;;;;;;;1.95;90.15;99803.76;1682560;85;21323;-87
2022/01/29 13:35:31;;;;;;;4.50;3.05;;;;;;;1.89;89.86;99798.91;1685105;83;21310;-79
2022/01/29 13:38:39;;;;;;;2.55;2.17;;;;;;;1.88;89.58;99802.07;1698006;84;21181;-79
2022/01/29 13:41:44;;;;;;;4.53;2.90;;;;;;;1.87;89.52;99808.95;1712251;83;21322;-87
2022/01/29 13:45:22;;;;;;;2.92;2.40;;;;;;;1.85;89.44;99810.94;1720411;83;22239;-86
2022/01/29 13:48:26;;;;;;;4.37;3.25;;;;;;;1.83;89.57;99810.20;1720593;83;21323;-86
2022/01/29 13:51:42;;;;;;;3.72;2.60;;;;;;;1.78;89.58;99811.95;1720576;83;21306;-79
2022/01/29 13:54:48;;;;;;;3.52;2.85;;;;;;;1.74;89.79;99819.47;1720304;83;21286;-79
2022/01/29 13:58:14;;;;;;;4.10;2.77;;;;;;;1.71;89.91;99822.42;1719885;83;21810;-87
2022/01/29 14:01:19;;;;;;;4.00;2.75;;;;;;;1.69;89.73;99812.73;1720356;83;21849;-79
2022/01/29 14:04:40;;;;;;;8.25;2.87;;;;;;;1.66;89.37;99817.92;1720145;83;21214;-88
2022/01/29 14:07:45;;;;;;;4.97;3.37;;;;;;;1.69;89.05;99828.92;1720480;83;21876;-79
2022/01/29 14:11:06;;;;;;;3.20;2.60;;;;;;;1.66;88.68;99837.29;1719564;83;21215;-87
2022/01/29 14:14:10;;;;;;;3.50;2.80;;;;;;;1.62;88.76;99843.42;1719284;83;21728;-80
2022/01/29 14:17:25;;;;;;;3.33;2.55;;;;;;;1.63;88.81;99845.13;1719751;83;21294;-87
2022/01/29 14:20:31;;;;;;;4.45;2.65;;;;;;;1.61;88.72;99849.81;1720235;83;21537;-78
2022/01/29 14:23:36;;;;;;;3.47;2.58;;;;;;;1.57;89.00;99855.09;1719733;83;21824;-78
2022/01/29 14:26:43;;;;;;;3.52;2.77;;;;;;;1.54;89.29;99849.95;1703419;83;21374;-77
2022/01/29 14:29:50;;;;;;;2.87;2.10;;;;;;;1.53;89.54;99837.47;1688834;85;21307;-78
2022/01/29 14:32:56;;;;;;;4.67;2.77;;;;;;;1.51;89.95;99843.00;1717397;83;21907;-87
2022/01/29 14:36:01;;;;;;;6.75;3.00;;;;;;;1.48;90.21;99855.38;1714425;83;21545;-86
2022/01/29 14:39:07;;;;;;;4.58;3.00;;;;;;;1.50;90.44;99861.48;1710540;83;21227;-78
2022/01/29 14:42:13;;;;;;;3.75;2.45;;;;;;;1.49;90.67;99864.31;1693759;84;21345;-77
2022/01/29 14:45:19;;;;;;;6.72;3.27;;;;;;;1.51;91.05;99867.76;1693509;84;21171;-78
2022/01/29 14:48:25;;;;;;;3.10;2.60;;;;;;;1.53;91.29;99863.08;1694933;84;21357;-87
2022/01/29 14:51:35;;;;;;;3.77;2.87;;;;;;;1.57;91.45;99867.72;1694714;84;21832;-87
2022/01/29 14:54:40;;;;;;;4.25;2.90;;;;;;;1.59;91.61;99871.98;1694035;84;21309;-87
2022/01/29 14:57:46;;;;;;;3.72;2.67;;;;;;;1.61;91.71;99878.12;1693644;84;21263;-77
2022/01/29 15:00:52;;;;;;;3.87;2.85;;;;;;;1.64;91.80;99888.63;1695031;84;21341;-87
2022/01/29 15:03:57;;;;;;;4.17;2.85;;;;;;;1.67;91.85;99880.28;1693730;84;21333;-78
2022/01/29 15:07:04;;;;;;;3.30;2.72;;;;;;;1.70;91.75;99895.36;1693439;84;21856;-78
2022/01/29 15:10:09;;;;;;;2.55;2.20;;;;;;;1.70;91.87;99897.56;1693504;84;21321;-77
2022/01/29 15:13:16;;;;;;;4.17;2.72;;;;;;;1.72;91.86;99895.58;1694804;84;21650;-87
2022/01/29 15:16:22;;;;;;;3.20;2.45;;;;;;;1.71;91.77;99893.87;1694254;84;21329;-78
2022/01/29 15:19:29;;;;;;;3.72;2.65;;;;;;;1.69;91.84;99895.83;1693547;84;21219;-77
2022/01/29 15:22:35;;;;;;;5.62;2.60;;;;;;;1.69;91.87;99905.77;1693859;84;21338;-87
2022/01/29 15:25:41;;;;;;;4.50;2.80;;;;;;;1.69;91.96;99907.11;1695520;84;21192;-86
2022/01/29 15:28:47;;;;;;;2.75;2.00;;;;;;;1.68;92.12;99907.61;1700021;84;21339;-87
2022/01/29 15:31:53;;;;;;;3.02;2.50;;;;;;;1.66;92.19;99904.20;1698719;84;21671;-78
2022/01/29 15:34:58;;;;;;;3.83;2.50;;;;;;;1.62;92.40;99904.58;1698441;84;21775;-79
2022/01/29 15:38:04;;;;;;;2.83;2.35;;;;;;;1.53;92.67;99911.10;1701566;83;21407;-88
2022/01/29 15:41:13;;;;;;;3.05;2.40;;;;;;;1.48;93.03;99904.39;1698306;84;21203;-87
2022/01/29 15:44:19;;;;;;;3.58;2.35;;;;;;;1.46;93.29;99907.72;1705150;84;21769;-79
2022/01/29 15:47:26;;;;;;;4.80;2.55;;;;;;;1.47;93.46;99914.32;1704155;84;21303;-87
2022/01/29 15:50:31;;;;;;;2.65;2.10;;;;;;;1.45;93.65;99912.22;1705269;84;21280;-88
2022/01/29 15:53:38;;;;;;;3.40;2.12;;;;;;;1.42;93.80;99913.84;1705309;84;21291;-84
2022/01/29 15:56:44;;;;;;;3.95;2.22;;;;;;;1.42;93.96;99915.20;1706819;84;21220;-77
2022/01/29 15:59:51;;;;;;;4.40;2.00;;;;;;;1.42;94.01;99918.39;1708282;84;21213;-79
2022/01/29 16:02:56;;;;;;;3.50;2.33;;;;;;;1.43;94.06;99926.83;1708553;84;21236;-88
2022/01/29 16:06:01;;;;;;;3.10;1.85;;;;;;;1.43;94.13;99929.03;1707396;84;21327;-88
2022/01/29 16:09:06;;;;;;;2.92;1.75;;;;;;;1.46;94.11;99933.33;1705388;84;21313;-87
2022/01/29 16:12:13;;;;;;;5.80;2.05;;;;;;;1.45;93.99;99939.67;1720513;83;21330;-79
2022/01/29 16:15:18;;;;;;;2.70;2.05;;;;;;;1.45;93.97;99935.14;1719461;83;21809;-82
2022/01/29 16:18:25;;;;;;;2.80;2.20;;;;;;;1.46;93.97;99938.72;1720353;83;21318;-88
2022/01/29 16:21:31;;;;;;;4.25;2.42;;;;;;;1.42;93.92;99934.06;1719927;83;21211;-88
2022/01/29 16:24:37;;;;;;;2.70;2.10;;;;;;;1.37;93.98;99947.56;1714586;83;22061;-88
2022/01/29 16:27:45;;;;;;;3.92;2.20;;;;;;;1.34;94.09;99943.27;1703858;84;21952;-87
2022/01/29 16:30:51;;;;;;;3.70;2.60;;;;;;;1.32;94.04;99940.31;1705272;84;21736;-79
2022/01/29 16:33:56;;;;;;;4.75;2.83;;;;;;;1.30;94.05;99942.30;1705455;84;21339;-87
2022/01/29 16:37:02;;;;;;;3.75;2.80;;;;;;;1.24;94.03;99945.86;1704776;84;21853;-79
2022/01/29 16:40:07;;;;;;;3.72;2.40;;;;;;;1.24;94.05;99948.55;1703711;83;21346;-79
2022/01/29 16:43:13;;;;;;;3.27;2.80;;;;;;;1.25;94.05;99950.27;1705256;84;21280;-80
2022/01/29 16:46:19;;;;;;;4.60;3.00;;;;;;;1.25;93.98;99954.30;1704248;84;21873;-78
2022/01/29 16:49:25;;;;;;;3.50;2.62;;;;;;;1.25;93.95;99961.53;1704864;84;21303;-87
2022/01/29 16:52:30;;;;;;;2.77;2.17;;;;;;;1.24;93.75;99957.98;1704130;84;21331;-79
2022/01/29 16:55:36;;;;;;;4.22;2.62;;;;;;;1.23;93.69;99966.20;1705219;84;21307;-79
2022/01/29 16:58:41;;;;;;;6.92;2.98;;;;;;;1.23;93.69;99972.45;1705376;84;21285;-79
2022/01/29 17:01:49;;;;;;;8.23;2.98;;;;;;;1.24;93.66;99971.95;1705609;84;21250;-79
2022/01/29 17:04:55;;;;;;;5.85;3.27;;;;;;;1.27;93.58;99972.56;1705454;84;22207;-87
2022/01/29 17:08:01;;;;;;;5.53;3.12;;;;;;;1.30;93.44;99974.14;1705397;84;21371;-79
2022/01/29 17:11:06;;;;;;;4.55;3.17;;;;;;;1.31;93.27;99972.30;1710806;83;21204;-78
2022/01/29 17:14:11;;;;;;;6.60;3.47;;;;;;;1.27;93.22;99982.00;1720084;83;21836;-79
2022/01/29 17:17:17;;;;;;;4.45;2.90;;;;;;;1.32;93.28;99974.00;1718757;83;21871;-79
2022/01/29 17:20:22;;;;;;;4.65;3.20;;;;;;;1.33;93.18;99980.63;1719690;83;21314;-79
2022/01/29 17:23:31;;;;;;;5.37;3.80;;;;;;;1.36;92.95;99989.80;1720325;83;21295;-87
2022/01/29 17:26:35;;;;;;;4.10;3.15;;;;;;;1.38;92.75;99989.69;1702136;83;21200;-87
2022/01/29 17:29:41;;;;;;;4.37;3.47;;;;;;;1.40;92.55;99987.71;1689813;85;21338;-87
2022/01/29 17:32:51;;;;;;;4.42;3.25;;;;;;;1.36;92.40;99984.41;1688648;85;21330;-87
2022/01/29 17:35:59;;;;;;;6.58;3.00;;;;;;;1.37;92.34;99990.68;1689419;85;21330;-80
2022/01/29 17:39:04;;;;;;;3.42;2.98;;;;;;;1.38;92.25;99982.95;1689599;85;21967;-86
2022/01/29 17:42:10;;;;;;;4.78;3.35;;;;;;;1.36;92.00;99989.80;1690586;84;21931;-87
2022/01/29 17:45:16;;;;;;;4.47;3.15;;;;;;;1.34;91.86;99990.92;1691300;85;21834;-87
2022/01/29 17:48:21;;;;;;;4.20;2.90;;;;;;;1.31;91.78;99997.89;1690050;85;21291;-80
2022/01/29 17:51:26;;;;;;;9.45;2.92;;;;;;;1.31;91.79;100001.94;1690228;85;21331;-79
2022/01/29 17:54:32;;;;;;;6.17;3.47;;;;;;;1.31;91.63;100000.09;1690163;85;21732;-86
2022/01/29 17:57:37;;;;;;;5.47;3.10;;;;;;;1.31;91.36;100002.79;1690162;85;21248;-77
2022/01/29 18:00:43;;;;;;;3.83;3.17;;;;;;;1.35;91.14;100006.95;1691565;85;21820;-78
2022/01/29 18:03:48;;;;;;;3.77;2.75;;;;;;;1.35;90.79;99999.36;1680886;85;21303;-78
2022/01/29 18:06:55;;;;;;;5.20;2.80;;;;;;;1.38;90.56;99996.42;1690693;85;21343;-86
2022/01/29 18:10:01;;;;;;;3.83;2.65;;;;;;;1.39;90.26;99996.78;1690494;85;21190;-80
2022/01/29 18:13:12;;;;;;;7.12;2.70;;;;;;;1.39;89.94;99998.98;1690015;85;21654;-78
2022/01/29 18:16:14;;;;;;;2.83;2.37;;;;;;;1.38;89.81;100000.47;1689966;85;21350;-79
2022/01/29 18:19:21;;;;;;;3.17;2.20;;;;;;;1.39;89.72;100006.22;1689969;85;21193;-86
2022/01/29 18:22:26;;;;;;;5.72;2.62;;;;;;;1.39;89.59;100001.68;1690953;85;21315;-86
2022/01/29 18:25:32;;;;;;;2.42;1.90;;;;;;;1.40;89.51;100001.19;1694781;83;21717;-79
2022/01/29 18:28:37;;;;;;;2.70;2.08;;;;;;;1.42;89.40;100001.94;1716843;83;21326;-86
2022/01/29 18:31:43;;;;;;;2.58;2.20;;;;;;;1.45;89.25;100005.70;1716208;83;21646;-86
2022/01/29 18:34:49;;;;;;;3.08;2.00;;;;;;;1.43;89.02;100006.34;1717020;83;21279;-78
2022/01/29 18:37:55;;;;;;;4.20;2.27;;;;;;;1.42;88.81;100001.94;1715861;83;21329;-78
2022/01/29 18:41:01;;;;;;;3.00;2.22;;;;;;;1.38;88.77;100004.02;1714470;83;21295;-86
2022/01/29 18:44:07;;;;;;;4.22;2.72;;;;;;;1.34;88.93;99999.86;1714776;83;22187;-78
2022/01/29 18:47:14;;;;;;;3.87;2.83;;;;;;;1.33;89.10;100001.34;1713997;83;21216;-86
2022/01/29 18:50:19;;;;;;;7.75;3.85;;;;;;;1.29;89.21;100003.42;1714513;83;21812;-85
2022/01/29 18:53:29;;;;;;;4.83;3.47;;;;;;;1.31;89.30;99999.24;1714454;83;21231;-79
2022/01/29 18:56:35;;;;;;;4.83;3.50;;;;;;;1.30;89.36;99999.73;1704689;83;21319;-86
2022/01/29 18:59:41;;;;;;;5.50;4.10;;;;;;;1.29;89.50;100002.07;1666009;84;21193;-78
2022/01/29 19:02:48;;;;;;;5.92;4.28;;;;;;;1.30;89.65;99998.39;1686349;85;21409;-79